sensor_id;sensor_type;location;lat;lon;timestamp;P1;durP1;ratioP1;P2;durP2;ratioP2
3347;SDS011;1687;49.540;8.574;2023-11-19T00:02:20;10.73;;;5.53;;
3347;SDS011;1687;49.540;8.574;2023-11-19T00:04:46;8.03;;;3.90;;
3347;SDS011;1687;49.540;8.574;2023-11-19T00:07:12;14.77;;;4.97;;
3347;SDS011;1687;49.540;8.574;2023-11-19T00:09:39;8.80;;;4.50;;
3347;SDS011;1687;49.540;8.574;2023-11-19T00:12:05;8.97;;;4.80;;
3347;SDS011;1687;49.540;8.574;2023-11-19T00:14:32;9.50;;;4.33;;
3347;SDS011;1687;49.540;8.574;2023-11-19T00:17:00;6.00;;;3.37;;
3347;SDS011;1687;49.540;8.574;2023-11-19T00:19:26;9.40;;;4.53;;
3347;SDS011;1687;49.540;8.574;2023-11-19T00:21:52;7.60;;;4.53;;
3347;SDS011;1687;49.540;8.574;2023-11-19T00:24:18;8.57;;;3.60;;
3347;SDS011;1687;49.540;8.574;2023-11-19T00:26:45;9.03;;;4.50;;
3347;SDS011;1687;49.540;8.574;2023-11-19T00:29:11;8.70;;;3.80;;
3347;SDS011;1687;49.540;8.574;2023-11-19T00:31:38;4.77;;;3.10;;
3347;SDS011;1687;49.540;8.574;2023-11-19T00:34:04;7.60;;;4.20;;
3347;SDS011;1687;49.540;8.574;2023-11-19T00:36:31;6.10;;;3.37;;
3347;SDS011;1687;49.540;8.574;2023-11-19T00:38:57;11.00;;;4.17;;
3347;SDS011;1687;49.540;8.574;2023-11-19T00:41:22;7.40;;;3.27;;
3347;SDS011;1687;49.540;8.574;2023-11-19T00:43:48;7.80;;;3.90;;
3347;SDS011;1687;49.540;8.574;2023-11-19T00:46:14;6.87;;;4.27;;
3347;SDS011;1687;49.540;8.574;2023-11-19T00:48:40;4.10;;;2.87;;
3347;SDS011;1687;49.540;8.574;2023-11-19T00:51:06;6.07;;;3.30;;
3347;SDS011;1687;49.540;8.574;2023-11-19T00:53:32;5.13;;;3.60;;
3347;SDS011;1687;49.540;8.574;2023-11-19T00:55:58;6.00;;;3.13;;
3347;SDS011;1687;49.540;8.574;2023-11-19T00:58:25;4.70;;;2.90;;
3347;SDS011;1687;49.540;8.574;2023-11-19T01:00:51;8.90;;;3.60;;
3347;SDS011;1687;49.540;8.574;2023-11-19T01:03:16;5.80;;;2.93;;
3347;SDS011;1687;49.540;8.574;2023-11-19T01:05:42;5.70;;;3.00;;
3347;SDS011;1687;49.540;8.574;2023-11-19T01:08:09;3.77;;;2.13;;
3347;SDS011;1687;49.540;8.574;2023-11-19T01:10:38;4.43;;;2.33;;
3347;SDS011;1687;49.540;8.574;2023-11-19T01:13:04;3.90;;;2.40;;
3347;SDS011;1687;49.540;8.574;2023-11-19T01:15:31;4.57;;;2.53;;
3347;SDS011;1687;49.540;8.574;2023-11-19T01:17:57;3.73;;;2.07;;
3347;SDS011;1687;49.540;8.574;2023-11-19T01:20:23;3.57;;;2.17;;
3347;SDS011;1687;49.540;8.574;2023-11-19T01:22:49;3.20;;;1.77;;
3347;SDS011;1687;49.540;8.574;2023-11-19T01:25:15;5.23;;;2.10;;
3347;SDS011;1687;49.540;8.574;2023-11-19T01:27:41;3.37;;;2.10;;
3347;SDS011;1687;49.540;8.574;2023-11-19T01:30:07;4.80;;;1.90;;
3347;SDS011;1687;49.540;8.574;2023-11-19T01:32:38;5.40;;;2.13;;
3347;SDS011;1687;49.540;8.574;2023-11-19T01:35:05;4.00;;;1.77;;
3347;SDS011;1687;49.540;8.574;2023-11-19T01:37:31;3.03;;;1.60;;
3347;SDS011;1687;49.540;8.574;2023-11-19T01:39:57;8.37;;;2.20;;
3347;SDS011;1687;49.540;8.574;2023-11-19T01:42:23;4.53;;;1.97;;
3347;SDS011;1687;49.540;8.574;2023-11-19T01:44:57;2.90;;;1.70;;
3347;SDS011;1687;49.540;8.574;2023-11-19T01:47:25;6.77;;;2.47;;
3347;SDS011;1687;49.540;8.574;2023-11-19T01:49:51;4.07;;;2.13;;
3347;SDS011;1687;49.540;8.574;2023-11-19T01:52:17;5.43;;;1.80;;
3347;SDS011;1687;49.540;8.574;2023-11-19T01:54:44;3.23;;;1.63;;
3347;SDS011;1687;49.540;8.574;2023-11-19T01:57:10;4.57;;;2.17;;
3347;SDS011;1687;49.540;8.574;2023-11-19T01:59:36;8.63;;;2.60;;
3347;SDS011;1687;49.540;8.574;2023-11-19T02:02:03;3.27;;;1.70;;
3347;SDS011;1687;49.540;8.574;2023-11-19T02:04:30;4.67;;;2.23;;
3347;SDS011;1687;49.540;8.574;2023-11-19T02:06:57;8.77;;;1.53;;
3347;SDS011;1687;49.540;8.574;2023-11-19T02:09:23;5.00;;;1.70;;
3347;SDS011;1687;49.540;8.574;2023-11-19T02:11:49;2.87;;;1.53;;
3347;SDS011;1687;49.540;8.574;2023-11-19T02:14:16;2.40;;;1.50;;
3347;SDS011;1687;49.540;8.574;2023-11-19T02:16:43;3.47;;;1.60;;
3347;SDS011;1687;49.540;8.574;2023-11-19T02:19:09;3.10;;;1.40;;
3347;SDS011;1687;49.540;8.574;2023-11-19T02:21:36;2.20;;;1.30;;
3347;SDS011;1687;49.540;8.574;2023-11-19T02:24:06;2.63;;;1.20;;
3347;SDS011;1687;49.540;8.574;2023-11-19T02:29:28;3.03;;;1.53;;
3347;SDS011;1687;49.540;8.574;2023-11-19T02:31:54;2.30;;;1.20;;
3347;SDS011;1687;49.540;8.574;2023-11-19T02:34:21;3.87;;;1.77;;
3347;SDS011;1687;49.540;8.574;2023-11-19T02:36:47;2.23;;;1.27;;
3347;SDS011;1687;49.540;8.574;2023-11-19T02:39:12;2.97;;;1.67;;
3347;SDS011;1687;49.540;8.574;2023-11-19T02:41:38;2.23;;;1.47;;
3347;SDS011;1687;49.540;8.574;2023-11-19T02:44:05;2.97;;;1.30;;
3347;SDS011;1687;49.540;8.574;2023-11-19T02:46:33;2.63;;;1.60;;
3347;SDS011;1687;49.540;8.574;2023-11-19T02:48:59;3.17;;;1.70;;
3347;SDS011;1687;49.540;8.574;2023-11-19T02:51:25;2.30;;;1.30;;
3347;SDS011;1687;49.540;8.574;2023-11-19T02:53:52;3.63;;;1.90;;
3347;SDS011;1687;49.540;8.574;2023-11-19T02:56:18;3.60;;;1.70;;
3347;SDS011;1687;49.540;8.574;2023-11-19T02:58:54;2.50;;;1.40;;
3347;SDS011;1687;49.540;8.574;2023-11-19T03:01:23;5.27;;;2.23;;
3347;SDS011;1687;49.540;8.574;2023-11-19T03:03:54;2.23;;;1.20;;
3347;SDS011;1687;49.540;8.574;2023-11-19T03:06:23;2.33;;;1.07;;
3347;SDS011;1687;49.540;8.574;2023-11-19T03:08:49;2.43;;;1.50;;
3347;SDS011;1687;49.540;8.574;2023-11-19T03:11:15;4.57;;;1.60;;
3347;SDS011;1687;49.540;8.574;2023-11-19T03:13:41;3.77;;;1.57;;
3347;SDS011;1687;49.540;8.574;2023-11-19T03:16:07;4.40;;;1.40;;
3347;SDS011;1687;49.540;8.574;2023-11-19T03:18:32;4.90;;;1.47;;
3347;SDS011;1687;49.540;8.574;2023-11-19T03:20:58;4.13;;;2.10;;
3347;SDS011;1687;49.540;8.574;2023-11-19T03:23:24;4.63;;;2.07;;
3347;SDS011;1687;49.540;8.574;2023-11-19T03:25:53;4.70;;;1.93;;
3347;SDS011;1687;49.540;8.574;2023-11-19T03:28:19;2.63;;;1.60;;
3347;SDS011;1687;49.540;8.574;2023-11-19T03:30:45;3.77;;;1.80;;
3347;SDS011;1687;49.540;8.574;2023-11-19T03:33:10;2.77;;;1.70;;
3347;SDS011;1687;49.540;8.574;2023-11-19T03:35:36;2.57;;;1.60;;
3347;SDS011;1687;49.540;8.574;2023-11-19T03:38:02;3.80;;;2.00;;
3347;SDS011;1687;49.540;8.574;2023-11-19T03:40:28;3.67;;;2.20;;
3347;SDS011;1687;49.540;8.574;2023-11-19T03:42:55;4.60;;;2.10;;
3347;SDS011;1687;49.540;8.574;2023-11-19T03:45:23;3.13;;;2.00;;
3347;SDS011;1687;49.540;8.574;2023-11-19T03:47:49;3.83;;;1.90;;
3347;SDS011;1687;49.540;8.574;2023-11-19T03:50:15;3.17;;;1.43;;
3347;SDS011;1687;49.540;8.574;2023-11-19T03:52:41;3.00;;;1.53;;
3347;SDS011;1687;49.540;8.574;2023-11-19T03:55:07;2.80;;;1.40;;
3347;SDS011;1687;49.540;8.574;2023-11-19T03:57:34;3.30;;;1.33;;
3347;SDS011;1687;49.540;8.574;2023-11-19T04:00:00;3.57;;;1.33;;
3347;SDS011;1687;49.540;8.574;2023-11-19T04:02:32;3.20;;;1.30;;
3347;SDS011;1687;49.540;8.574;2023-11-19T04:04:58;2.77;;;1.30;;
3347;SDS011;1687;49.540;8.574;2023-11-19T04:07:24;3.03;;;1.30;;
3347;SDS011;1687;49.540;8.574;2023-11-19T04:09:49;2.07;;;1.13;;
3347;SDS011;1687;49.540;8.574;2023-11-19T04:12:15;1.70;;;1.00;;
3347;SDS011;1687;49.540;8.574;2023-11-19T04:14:41;3.20;;;1.80;;
3347;SDS011;1687;49.540;8.574;2023-11-19T04:17:07;5.07;;;1.83;;
3347;SDS011;1687;49.540;8.574;2023-11-19T04:19:33;3.00;;;1.43;;
3347;SDS011;1687;49.540;8.574;2023-11-19T04:21:58;3.10;;;1.77;;
3347;SDS011;1687;49.540;8.574;2023-11-19T04:24:24;3.13;;;1.53;;
3347;SDS011;1687;49.540;8.574;2023-11-19T04:26:50;2.50;;;1.70;;
3347;SDS011;1687;49.540;8.574;2023-11-19T04:29:16;3.23;;;1.77;;
3347;SDS011;1687;49.540;8.574;2023-11-19T04:31:42;3.53;;;1.90;;
3347;SDS011;1687;49.540;8.574;2023-11-19T04:34:09;2.50;;;1.40;;
3347;SDS011;1687;49.540;8.574;2023-11-19T04:36:36;3.37;;;1.30;;
3347;SDS011;1687;49.540;8.574;2023-11-19T04:39:02;2.90;;;1.63;;
3347;SDS011;1687;49.540;8.574;2023-11-19T04:41:47;3.37;;;1.50;;
3347;SDS011;1687;49.540;8.574;2023-11-19T04:44:14;2.93;;;1.40;;
3347;SDS011;1687;49.540;8.574;2023-11-19T04:46:41;2.50;;;1.30;;
3347;SDS011;1687;49.540;8.574;2023-11-19T04:49:09;2.77;;;1.93;;
3347;SDS011;1687;49.540;8.574;2023-11-19T04:51:38;2.60;;;1.50;;
3347;SDS011;1687;49.540;8.574;2023-11-19T04:54:06;4.10;;;1.57;;
3347;SDS011;1687;49.540;8.574;2023-11-19T04:56:33;3.37;;;1.80;;
3347;SDS011;1687;49.540;8.574;2023-11-19T04:59:02;3.30;;;1.70;;
3347;SDS011;1687;49.540;8.574;2023-11-19T05:01:30;3.30;;;1.50;;
3347;SDS011;1687;49.540;8.574;2023-11-19T05:03:58;2.83;;;1.47;;
3347;SDS011;1687;49.540;8.574;2023-11-19T05:06:28;2.10;;;1.30;;
3347;SDS011;1687;49.540;8.574;2023-11-19T05:08:55;4.70;;;1.47;;
3347;SDS011;1687;49.540;8.574;2023-11-19T05:11:21;4.37;;;1.50;;
3347;SDS011;1687;49.540;8.574;2023-11-19T05:13:47;2.77;;;1.53;;
3347;SDS011;1687;49.540;8.574;2023-11-19T05:16:13;2.77;;;1.50;;
3347;SDS011;1687;49.540;8.574;2023-11-19T05:18:40;2.10;;;1.27;;
3347;SDS011;1687;49.540;8.574;2023-11-19T05:21:06;4.07;;;1.87;;
3347;SDS011;1687;49.540;8.574;2023-11-19T05:23:32;2.60;;;1.60;;
3347;SDS011;1687;49.540;8.574;2023-11-19T05:26:01;3.30;;;1.53;;
3347;SDS011;1687;49.540;8.574;2023-11-19T05:28:27;11.73;;;2.07;;
3347;SDS011;1687;49.540;8.574;2023-11-19T05:30:53;3.80;;;1.83;;
3347;SDS011;1687;49.540;8.574;2023-11-19T05:33:20;5.80;;;1.80;;
3347;SDS011;1687;49.540;8.574;2023-11-19T05:35:46;5.03;;;1.60;;
3347;SDS011;1687;49.540;8.574;2023-11-19T05:38:11;2.60;;;1.50;;
3347;SDS011;1687;49.540;8.574;2023-11-19T05:40:38;3.00;;;1.60;;
3347;SDS011;1687;49.540;8.574;2023-11-19T05:43:04;2.90;;;1.30;;
3347;SDS011;1687;49.540;8.574;2023-11-19T05:45:31;4.40;;;1.83;;
3347;SDS011;1687;49.540;8.574;2023-11-19T05:47:57;6.37;;;2.30;;
3347;SDS011;1687;49.540;8.574;2023-11-19T05:50:23;3.83;;;1.70;;
3347;SDS011;1687;49.540;8.574;2023-11-19T05:52:49;2.80;;;1.30;;
3347;SDS011;1687;49.540;8.574;2023-11-19T05:55:15;3.07;;;1.50;;
3347;SDS011;1687;49.540;8.574;2023-11-19T05:57:41;4.63;;;2.27;;
3347;SDS011;1687;49.540;8.574;2023-11-19T06:00:07;4.77;;;2.33;;
3347;SDS011;1687;49.540;8.574;2023-11-19T06:02:35;3.00;;;1.87;;
3347;SDS011;1687;49.540;8.574;2023-11-19T06:05:03;2.80;;;1.70;;
3347;SDS011;1687;49.540;8.574;2023-11-19T06:07:30;3.37;;;1.70;;
3347;SDS011;1687;49.540;8.574;2023-11-19T06:10:00;3.53;;;1.60;;
3347;SDS011;1687;49.540;8.574;2023-11-19T06:12:26;3.77;;;1.40;;
3347;SDS011;1687;49.540;8.574;2023-11-19T06:14:52;4.13;;;1.80;;
3347;SDS011;1687;49.540;8.574;2023-11-19T06:17:18;3.47;;;1.60;;
3347;SDS011;1687;49.540;8.574;2023-11-19T06:19:44;4.20;;;1.63;;
3347;SDS011;1687;49.540;8.574;2023-11-19T06:22:10;2.60;;;1.50;;
3347;SDS011;1687;49.540;8.574;2023-11-19T06:24:36;3.10;;;1.60;;
3347;SDS011;1687;49.540;8.574;2023-11-19T06:27:01;2.53;;;1.63;;
3347;SDS011;1687;49.540;8.574;2023-11-19T06:29:27;3.63;;;1.60;;
3347;SDS011;1687;49.540;8.574;2023-11-19T06:31:53;3.77;;;1.90;;
3347;SDS011;1687;49.540;8.574;2023-11-19T06:34:19;4.23;;;2.13;;
3347;SDS011;1687;49.540;8.574;2023-11-19T06:36:45;6.30;;;3.20;;
3347;SDS011;1687;49.540;8.574;2023-11-19T06:39:10;7.37;;;2.43;;
3347;SDS011;1687;49.540;8.574;2023-11-19T06:41:36;3.13;;;1.90;;
3347;SDS011;1687;49.540;8.574;2023-11-19T06:44:04;4.13;;;2.20;;
3347;SDS011;1687;49.540;8.574;2023-11-19T06:46:30;3.47;;;1.70;;
3347;SDS011;1687;49.540;8.574;2023-11-19T06:48:56;3.07;;;1.70;;
3347;SDS011;1687;49.540;8.574;2023-11-19T06:51:22;4.33;;;1.57;;
3347;SDS011;1687;49.540;8.574;2023-11-19T06:53:49;3.70;;;1.87;;
3347;SDS011;1687;49.540;8.574;2023-11-19T06:56:19;3.07;;;1.60;;
3347;SDS011;1687;49.540;8.574;2023-11-19T06:58:52;3.83;;;1.70;;
3347;SDS011;1687;49.540;8.574;2023-11-19T07:01:18;3.77;;;2.13;;
3347;SDS011;1687;49.540;8.574;2023-11-19T07:03:47;3.33;;;1.80;;
3347;SDS011;1687;49.540;8.574;2023-11-19T07:06:13;2.23;;;1.57;;
3347;SDS011;1687;49.540;8.574;2023-11-19T07:08:41;4.77;;;1.90;;
3347;SDS011;1687;49.540;8.574;2023-11-19T07:11:09;5.50;;;2.87;;
3347;SDS011;1687;49.540;8.574;2023-11-19T07:13:36;8.33;;;2.00;;
3347;SDS011;1687;49.540;8.574;2023-11-19T07:16:02;4.00;;;2.23;;
3347;SDS011;1687;49.540;8.574;2023-11-19T07:18:29;2.57;;;1.60;;
3347;SDS011;1687;49.540;8.574;2023-11-19T07:20:54;4.77;;;1.70;;
3347;SDS011;1687;49.540;8.574;2023-11-19T07:23:20;8.27;;;2.00;;
3347;SDS011;1687;49.540;8.574;2023-11-19T07:25:46;3.03;;;1.93;;
3347;SDS011;1687;49.540;8.574;2023-11-19T07:28:12;8.23;;;2.90;;
3347;SDS011;1687;49.540;8.574;2023-11-19T07:30:39;3.63;;;1.70;;
3347;SDS011;1687;49.540;8.574;2023-11-19T07:33:05;3.93;;;2.07;;
3347;SDS011;1687;49.540;8.574;2023-11-19T07:35:31;6.37;;;2.20;;
3347;SDS011;1687;49.540;8.574;2023-11-19T07:37:57;5.57;;;2.57;;
3347;SDS011;1687;49.540;8.574;2023-11-19T07:40:23;6.23;;;2.77;;
3347;SDS011;1687;49.540;8.574;2023-11-19T07:42:49;10.33;;;3.43;;
3347;SDS011;1687;49.540;8.574;2023-11-19T07:45:15;6.90;;;2.43;;
3347;SDS011;1687;49.540;8.574;2023-11-19T07:47:42;5.80;;;2.37;;
3347;SDS011;1687;49.540;8.574;2023-11-19T07:50:11;11.33;;;5.10;;
3347;SDS011;1687;49.540;8.574;2023-11-19T07:52:39;4.37;;;2.30;;
3347;SDS011;1687;49.540;8.574;2023-11-19T07:55:05;5.53;;;2.40;;
3347;SDS011;1687;49.540;8.574;2023-11-19T07:57:31;5.60;;;2.30;;
3347;SDS011;1687;49.540;8.574;2023-11-19T07:59:57;4.43;;;2.43;;
3347;SDS011;1687;49.540;8.574;2023-11-19T08:02:22;4.57;;;1.87;;
3347;SDS011;1687;49.540;8.574;2023-11-19T08:04:49;6.70;;;2.30;;
3347;SDS011;1687;49.540;8.574;2023-11-19T08:07:17;4.23;;;2.43;;
3347;SDS011;1687;49.540;8.574;2023-11-19T08:09:43;3.07;;;1.90;;
3347;SDS011;1687;49.540;8.574;2023-11-19T08:12:10;5.03;;;2.20;;
3347;SDS011;1687;49.540;8.574;2023-11-19T08:14:36;2.97;;;1.70;;
3347;SDS011;1687;49.540;8.574;2023-11-19T08:17:02;5.80;;;1.97;;
3347;SDS011;1687;49.540;8.574;2023-11-19T08:19:28;3.27;;;1.77;;
3347;SDS011;1687;49.540;8.574;2023-11-19T08:21:54;3.40;;;1.60;;
3347;SDS011;1687;49.540;8.574;2023-11-19T08:24:20;5.73;;;2.40;;
3347;SDS011;1687;49.540;8.574;2023-11-19T08:26:46;2.50;;;1.37;;
3347;SDS011;1687;49.540;8.574;2023-11-19T08:29:11;6.27;;;2.30;;
3347;SDS011;1687;49.540;8.574;2023-11-19T08:31:38;11.83;;;1.73;;
3347;SDS011;1687;49.540;8.574;2023-11-19T08:34:04;2.83;;;1.43;;
3347;SDS011;1687;49.540;8.574;2023-11-19T08:36:33;3.07;;;1.50;;
3347;SDS011;1687;49.540;8.574;2023-11-19T08:39:00;2.60;;;1.37;;
3347;SDS011;1687;49.540;8.574;2023-11-19T08:41:25;3.67;;;2.20;;
3347;SDS011;1687;49.540;8.574;2023-11-19T08:43:52;2.70;;;1.57;;
3347;SDS011;1687;49.540;8.574;2023-11-19T08:46:17;3.70;;;2.10;;
3347;SDS011;1687;49.540;8.574;2023-11-19T08:48:43;8.20;;;2.70;;
3347;SDS011;1687;49.540;8.574;2023-11-19T08:51:09;7.43;;;4.17;;
3347;SDS011;1687;49.540;8.574;2023-11-19T08:53:34;5.20;;;2.33;;
3347;SDS011;1687;49.540;8.574;2023-11-19T08:56:00;3.57;;;1.80;;
3347;SDS011;1687;49.540;8.574;2023-11-19T08:58:27;4.13;;;2.63;;
3347;SDS011;1687;49.540;8.574;2023-11-19T09:00:53;11.23;;;3.83;;
3347;SDS011;1687;49.540;8.574;2023-11-19T09:03:20;6.30;;;3.93;;
3347;SDS011;1687;49.540;8.574;2023-11-19T09:05:45;3.90;;;2.43;;
3347;SDS011;1687;49.540;8.574;2023-11-19T09:08:11;4.43;;;2.60;;
3347;SDS011;1687;49.540;8.574;2023-11-19T09:10:37;3.63;;;2.00;;
3347;SDS011;1687;49.540;8.574;2023-11-19T09:13:03;4.23;;;2.60;;
3347;SDS011;1687;49.540;8.574;2023-11-19T09:15:29;4.00;;;1.93;;
3347;SDS011;1687;49.540;8.574;2023-11-19T09:17:54;6.07;;;2.70;;
3347;SDS011;1687;49.540;8.574;2023-11-19T09:20:21;6.43;;;2.20;;
3347;SDS011;1687;49.540;8.574;2023-11-19T09:22:46;7.60;;;2.50;;
3347;SDS011;1687;49.540;8.574;2023-11-19T09:25:12;5.50;;;2.93;;
3347;SDS011;1687;49.540;8.574;2023-11-19T09:27:41;7.30;;;3.27;;
3347;SDS011;1687;49.540;8.574;2023-11-19T09:30:08;7.30;;;3.60;;
3347;SDS011;1687;49.540;8.574;2023-11-19T09:32:34;3.80;;;2.70;;
3347;SDS011;1687;49.540;8.574;2023-11-19T09:35:00;6.27;;;3.27;;
3347;SDS011;1687;49.540;8.574;2023-11-19T09:37:27;3.60;;;2.30;;
3347;SDS011;1687;49.540;8.574;2023-11-19T09:39:53;8.20;;;2.93;;
3347;SDS011;1687;49.540;8.574;2023-11-19T09:42:19;7.27;;;3.10;;
3347;SDS011;1687;49.540;8.574;2023-11-19T09:44:45;9.33;;;4.20;;
3347;SDS011;1687;49.540;8.574;2023-11-19T09:47:13;3.10;;;2.13;;
3347;SDS011;1687;49.540;8.574;2023-11-19T09:49:40;3.63;;;2.10;;
3347;SDS011;1687;49.540;8.574;2023-11-19T09:52:06;3.10;;;1.50;;
3347;SDS011;1687;49.540;8.574;2023-11-19T09:54:32;7.20;;;2.37;;
3347;SDS011;1687;49.540;8.574;2023-11-19T09:56:58;6.20;;;1.90;;
3347;SDS011;1687;49.540;8.574;2023-11-19T09:59:29;4.87;;;2.73;;
3347;SDS011;1687;49.540;8.574;2023-11-19T10:01:56;4.80;;;1.50;;
3347;SDS011;1687;49.540;8.574;2023-11-19T10:04:22;6.47;;;1.60;;
3347;SDS011;1687;49.540;8.574;2023-11-19T10:06:48;3.27;;;1.40;;
3347;SDS011;1687;49.540;8.574;2023-11-19T10:09:16;8.03;;;1.60;;
3347;SDS011;1687;49.540;8.574;2023-11-19T10:11:42;4.90;;;1.47;;
3347;SDS011;1687;49.540;8.574;2023-11-19T10:14:08;5.00;;;1.53;;
3347;SDS011;1687;49.540;8.574;2023-11-19T10:16:34;4.83;;;1.10;;
3347;SDS011;1687;49.540;8.574;2023-11-19T10:19:00;2.53;;;1.10;;
3347;SDS011;1687;49.540;8.574;2023-11-19T10:21:26;4.70;;;1.83;;
3347;SDS011;1687;49.540;8.574;2023-11-19T10:23:54;5.57;;;1.63;;
3347;SDS011;1687;49.540;8.574;2023-11-19T10:26:25;4.27;;;1.63;;
3347;SDS011;1687;49.540;8.574;2023-11-19T10:28:52;3.40;;;1.67;;
3347;SDS011;1687;49.540;8.574;2023-11-19T10:31:18;4.80;;;1.90;;
3347;SDS011;1687;49.540;8.574;2023-11-19T10:33:54;12.90;;;1.37;;
3347;SDS011;1687;49.540;8.574;2023-11-19T10:36:21;3.73;;;1.13;;
3347;SDS011;1687;49.540;8.574;2023-11-19T10:38:52;6.00;;;1.50;;
3347;SDS011;1687;49.540;8.574;2023-11-19T10:41:28;2.97;;;1.80;;
3347;SDS011;1687;49.540;8.574;2023-11-19T10:43:58;3.10;;;1.57;;
3347;SDS011;1687;49.540;8.574;2023-11-19T10:46:36;2.97;;;1.47;;
3347;SDS011;1687;49.540;8.574;2023-11-19T10:49:06;5.00;;;1.70;;
3347;SDS011;1687;49.540;8.574;2023-11-19T10:51:32;2.53;;;1.33;;
3347;SDS011;1687;49.540;8.574;2023-11-19T10:54:05;7.80;;;1.57;;
3347;SDS011;1687;49.540;8.574;2023-11-19T10:56:32;6.87;;;1.57;;
3347;SDS011;1687;49.540;8.574;2023-11-19T10:58:59;4.10;;;1.30;;
3347;SDS011;1687;49.540;8.574;2023-11-19T11:01:32;2.77;;;1.10;;
3347;SDS011;1687;49.540;8.574;2023-11-19T11:04:05;2.20;;;1.10;;
3347;SDS011;1687;49.540;8.574;2023-11-19T11:06:42;3.63;;;1.57;;
3347;SDS011;1687;49.540;8.574;2023-11-19T11:09:09;4.60;;;1.73;;
3347;SDS011;1687;49.540;8.574;2023-11-19T11:11:39;3.27;;;1.10;;
3347;SDS011;1687;49.540;8.574;2023-11-19T11:14:05;2.93;;;1.33;;
3347;SDS011;1687;49.540;8.574;2023-11-19T11:16:32;5.93;;;1.53;;
3347;SDS011;1687;49.540;8.574;2023-11-19T11:19:01;4.90;;;1.33;;
3347;SDS011;1687;49.540;8.574;2023-11-19T11:21:26;3.17;;;1.30;;
3347;SDS011;1687;49.540;8.574;2023-11-19T11:36:02;4.30;;;1.43;;
3347;SDS011;1687;49.540;8.574;2023-11-19T11:38:39;5.53;;;1.37;;
3347;SDS011;1687;49.540;8.574;2023-11-19T11:41:35;4.30;;;1.07;;
3347;SDS011;1687;49.540;8.574;2023-11-19T11:44:01;3.20;;;1.57;;
3347;SDS011;1687;49.540;8.574;2023-11-19T11:48:59;9.80;;;1.53;;
3347;SDS011;1687;49.540;8.574;2023-11-19T11:54:08;3.10;;;1.60;;
3347;SDS011;1687;49.540;8.574;2023-11-19T11:56:43;3.67;;;1.77;;
3347;SDS011;1687;49.540;8.574;2023-11-19T12:02:08;6.40;;;1.83;;
3347;SDS011;1687;49.540;8.574;2023-11-19T12:04:35;3.60;;;1.87;;
3347;SDS011;1687;49.540;8.574;2023-11-19T12:07:05;2.47;;;1.47;;
3347;SDS011;1687;49.540;8.574;2023-11-19T12:09:32;2.50;;;1.30;;
3347;SDS011;1687;49.540;8.574;2023-11-19T12:12:12;5.00;;;2.00;;
3347;SDS011;1687;49.540;8.574;2023-11-19T12:20:01;13.20;;;2.27;;
3347;SDS011;1687;49.540;8.574;2023-11-19T12:22:33;4.47;;;1.50;;
3347;SDS011;1687;49.540;8.574;2023-11-19T12:25:02;3.70;;;1.53;;
3347;SDS011;1687;49.540;8.574;2023-11-19T12:27:30;10.03;;;1.80;;
3347;SDS011;1687;49.540;8.574;2023-11-19T12:29:55;7.07;;;2.33;;
3347;SDS011;1687;49.540;8.574;2023-11-19T12:32:22;7.77;;;2.47;;
3347;SDS011;1687;49.540;8.574;2023-11-19T12:34:47;7.63;;;2.17;;
3347;SDS011;1687;49.540;8.574;2023-11-19T12:37:13;11.37;;;2.57;;
3347;SDS011;1687;49.540;8.574;2023-11-19T12:39:39;6.47;;;2.20;;
3347;SDS011;1687;49.540;8.574;2023-11-19T12:42:05;5.73;;;2.30;;
3347;SDS011;1687;49.540;8.574;2023-11-19T12:44:31;5.20;;;2.87;;
3347;SDS011;1687;49.540;8.574;2023-11-19T12:47:03;4.10;;;1.93;;
3347;SDS011;1687;49.540;8.574;2023-11-19T12:49:31;5.00;;;2.30;;
3347;SDS011;1687;49.540;8.574;2023-11-19T12:51:58;6.70;;;1.70;;
3347;SDS011;1687;49.540;8.574;2023-11-19T12:54:37;5.43;;;1.97;;
3347;SDS011;1687;49.540;8.574;2023-11-19T12:57:03;4.50;;;2.27;;
3347;SDS011;1687;49.540;8.574;2023-11-19T12:59:30;3.33;;;2.17;;
3347;SDS011;1687;49.540;8.574;2023-11-19T13:01:59;7.90;;;2.37;;
3347;SDS011;1687;49.540;8.574;2023-11-19T13:04:29;8.23;;;1.60;;
3347;SDS011;1687;49.540;8.574;2023-11-19T13:06:56;11.50;;;2.27;;
3347;SDS011;1687;49.540;8.574;2023-11-19T13:09:23;7.30;;;3.43;;
3347;SDS011;1687;49.540;8.574;2023-11-19T13:11:53;5.07;;;2.13;;
3347;SDS011;1687;49.540;8.574;2023-11-19T13:14:19;4.57;;;1.57;;
3347;SDS011;1687;49.540;8.574;2023-11-19T13:16:45;5.97;;;1.60;;
3347;SDS011;1687;49.540;8.574;2023-11-19T13:19:12;6.67;;;1.50;;
3347;SDS011;1687;49.540;8.574;2023-11-19T13:21:39;5.73;;;2.30;;
3347;SDS011;1687;49.540;8.574;2023-11-19T13:24:08;9.30;;;1.77;;
3347;SDS011;1687;49.540;8.574;2023-11-19T13:26:34;5.27;;;1.10;;
3347;SDS011;1687;49.540;8.574;2023-11-19T13:29:00;4.23;;;1.77;;
3347;SDS011;1687;49.540;8.574;2023-11-19T13:31:25;13.57;;;2.10;;
3347;SDS011;1687;49.540;8.574;2023-11-19T13:33:51;5.40;;;1.50;;
3347;SDS011;1687;49.540;8.574;2023-11-19T13:36:17;10.00;;;2.83;;
3347;SDS011;1687;49.540;8.574;2023-11-19T13:38:43;10.23;;;1.90;;
3347;SDS011;1687;49.540;8.574;2023-11-19T13:41:12;9.50;;;1.73;;
3347;SDS011;1687;49.540;8.574;2023-11-19T13:43:38;6.37;;;1.93;;
3347;SDS011;1687;49.540;8.574;2023-11-19T13:46:04;3.00;;;1.30;;
3347;SDS011;1687;49.540;8.574;2023-11-19T13:48:30;8.20;;;1.77;;
3347;SDS011;1687;49.540;8.574;2023-11-19T13:50:57;4.93;;;1.70;;
3347;SDS011;1687;49.540;8.574;2023-11-19T13:53:23;7.73;;;2.37;;
3347;SDS011;1687;49.540;8.574;2023-11-19T13:55:49;6.80;;;2.13;;
3347;SDS011;1687;49.540;8.574;2023-11-19T13:58:15;8.60;;;1.50;;
3347;SDS011;1687;49.540;8.574;2023-11-19T14:00:41;3.13;;;1.27;;
3347;SDS011;1687;49.540;8.574;2023-11-19T14:03:08;3.10;;;1.20;;
3347;SDS011;1687;49.540;8.574;2023-11-19T14:05:36;4.33;;;1.00;;
3347;SDS011;1687;49.540;8.574;2023-11-19T14:08:02;1.93;;;0.90;;
3347;SDS011;1687;49.540;8.574;2023-11-19T14:10:36;2.40;;;1.00;;
3347;SDS011;1687;49.540;8.574;2023-11-19T14:13:07;6.20;;;1.27;;
3347;SDS011;1687;49.540;8.574;2023-11-19T14:15:33;3.40;;;1.60;;
3347;SDS011;1687;49.540;8.574;2023-11-19T14:18:00;7.33;;;1.23;;
3347;SDS011;1687;49.540;8.574;2023-11-19T14:20:26;9.07;;;2.30;;
3347;SDS011;1687;49.540;8.574;2023-11-19T14:22:52;4.70;;;1.17;;
3347;SDS011;1687;49.540;8.574;2023-11-19T14:25:18;10.03;;;1.27;;
3347;SDS011;1687;49.540;8.574;2023-11-19T14:27:44;4.13;;;1.40;;
3347;SDS011;1687;49.540;8.574;2023-11-19T14:30:13;6.20;;;1.07;;
3347;SDS011;1687;49.540;8.574;2023-11-19T14:32:40;5.00;;;1.30;;
3347;SDS011;1687;49.540;8.574;2023-11-19T14:35:08;3.00;;;1.20;;
3347;SDS011;1687;49.540;8.574;2023-11-19T14:37:34;4.73;;;1.00;;
3347;SDS011;1687;49.540;8.574;2023-11-19T14:40:00;2.10;;;1.20;;
3347;SDS011;1687;49.540;8.574;2023-11-19T14:42:29;9.20;;;1.30;;
3347;SDS011;1687;49.540;8.574;2023-11-19T14:44:54;3.83;;;1.20;;
3347;SDS011;1687;49.540;8.574;2023-11-19T14:47:20;4.30;;;1.10;;
3347;SDS011;1687;49.540;8.574;2023-11-19T14:49:47;5.10;;;1.93;;
3347;SDS011;1687;49.540;8.574;2023-11-19T14:52:12;6.40;;;1.20;;
3347;SDS011;1687;49.540;8.574;2023-11-19T14:54:39;2.67;;;1.10;;
3347;SDS011;1687;49.540;8.574;2023-11-19T14:57:05;2.93;;;1.30;;
3347;SDS011;1687;49.540;8.574;2023-11-19T14:59:34;2.50;;;1.20;;
3347;SDS011;1687;49.540;8.574;2023-11-19T15:02:00;3.47;;;1.20;;
3347;SDS011;1687;49.540;8.574;2023-11-19T15:04:26;3.10;;;1.33;;
3347;SDS011;1687;49.540;8.574;2023-11-19T15:06:52;4.57;;;1.10;;
3347;SDS011;1687;49.540;8.574;2023-11-19T15:09:18;4.80;;;1.50;;
3347;SDS011;1687;49.540;8.574;2023-11-19T15:11:46;3.60;;;1.13;;
3347;SDS011;1687;49.540;8.574;2023-11-19T15:14:12;7.87;;;1.90;;
3347;SDS011;1687;49.540;8.574;2023-11-19T15:16:44;8.53;;;1.50;;
3347;SDS011;1687;49.540;8.574;2023-11-19T15:19:15;2.50;;;1.00;;
3347;SDS011;1687;49.540;8.574;2023-11-19T15:21:41;3.37;;;1.20;;
3347;SDS011;1687;49.540;8.574;2023-11-19T15:24:07;5.97;;;1.97;;
3347;SDS011;1687;49.540;8.574;2023-11-19T15:26:34;16.07;;;1.87;;
3347;SDS011;1687;49.540;8.574;2023-11-19T15:29:00;4.43;;;1.30;;
3347;SDS011;1687;49.540;8.574;2023-11-19T15:31:27;17.30;;;1.50;;
3347;SDS011;1687;49.540;8.574;2023-11-19T15:33:53;7.07;;;2.37;;
3347;SDS011;1687;49.540;8.574;2023-11-19T15:36:19;3.93;;;1.27;;
3347;SDS011;1687;49.540;8.574;2023-11-19T15:38:45;14.47;;;1.40;;
3347;SDS011;1687;49.540;8.574;2023-11-19T15:41:11;12.13;;;2.60;;
3347;SDS011;1687;49.540;8.574;2023-11-19T15:43:36;4.43;;;1.10;;